sensor_id;sensor_type;location;lat;lon;timestamp;temperature;humidity
35970;DHT22;22448;51.298;6.430;2023-07-30T00:02:23;15.10;99.90
35970;DHT22;22448;51.298;6.430;2023-07-30T00:04:50;15.00;99.90
35970;DHT22;22448;51.298;6.430;2023-07-30T00:07:17;15.00;99.90
35970;DHT22;22448;51.298;6.430;2023-07-30T00:09:44;15.00;99.90
35970;DHT22;22448;51.298;6.430;2023-07-30T00:12:11;15.00;99.90
35970;DHT22;22448;51.298;6.430;2023-07-30T00:14:38;14.90;99.90
35970;DHT22;22448;51.298;6.430;2023-07-30T00:17:05;14.90;99.90
35970;DHT22;22448;51.298;6.430;2023-07-30T00:19:32;14.90;99.90
35970;DHT22;22448;51.298;6.430;2023-07-30T00:22:00;14.90;99.90
35970;DHT22;22448;51.298;6.430;2023-07-30T00:24:27;14.90;99.90
35970;DHT22;22448;51.298;6.430;2023-07-30T00:26:54;14.90;99.90
35970;DHT22;22448;51.298;6.430;2023-07-30T00:29:21;14.80;99.90
35970;DHT22;22448;51.298;6.430;2023-07-30T00:31:48;14.70;99.90
35970;DHT22;22448;51.298;6.430;2023-07-30T00:34:15;14.70;99.90
35970;DHT22;22448;51.298;6.430;2023-07-30T00:36:42;14.70;99.90
35970;DHT22;22448;51.298;6.430;2023-07-30T00:39:10;14.70;99.90
35970;DHT22;22448;51.298;6.430;2023-07-30T00:41:38;14.70;99.90
35970;DHT22;22448;51.298;6.430;2023-07-30T00:46:37;14.60;99.90
35970;DHT22;22448;51.298;6.430;2023-07-30T00:49:04;14.70;99.90
35970;DHT22;22448;51.298;6.430;2023-07-30T00:51:33;14.70;99.90
35970;DHT22;22448;51.298;6.430;2023-07-30T00:54:01;14.70;99.90
35970;DHT22;22448;51.298;6.430;2023-07-30T00:56:28;14.70;99.90
35970;DHT22;22448;51.298;6.430;2023-07-30T00:58:56;14.70;99.90
35970;DHT22;22448;51.298;6.430;2023-07-30T01:01:23;14.70;99.90
35970;DHT22;22448;51.298;6.430;2023-07-30T01:03:50;14.60;99.90
35970;DHT22;22448;51.298;6.430;2023-07-30T01:06:17;14.60;99.90
35970;DHT22;22448;51.298;6.430;2023-07-30T01:08:48;14.70;99.90
35970;DHT22;22448;51.298;6.430;2023-07-30T01:11:15;14.70;99.90
35970;DHT22;22448;51.298;6.430;2023-07-30T01:13:43;14.70;99.90
35970;DHT22;22448;51.298;6.430;2023-07-30T01:16:14;14.70;99.90
35970;DHT22;22448;51.298;6.430;2023-07-30T01:18:41;14.70;99.90
35970;DHT22;22448;51.298;6.430;2023-07-30T01:21:08;14.70;99.90
35970;DHT22;22448;51.298;6.430;2023-07-30T01:23:35;14.70;99.90
35970;DHT22;22448;51.298;6.430;2023-07-30T01:26:11;14.70;99.90
35970;DHT22;22448;51.298;6.430;2023-07-30T01:28:44;14.60;99.90
35970;DHT22;22448;51.298;6.430;2023-07-30T01:31:15;14.60;99.90
35970;DHT22;22448;51.298;6.430;2023-07-30T01:33:46;14.50;99.90
35970;DHT22;22448;51.298;6.430;2023-07-30T01:36:15;14.40;99.90
35970;DHT22;22448;51.298;6.430;2023-07-30T01:38:43;14.40;99.90
35970;DHT22;22448;51.298;6.430;2023-07-30T01:41:11;14.40;99.90
35970;DHT22;22448;51.298;6.430;2023-07-30T01:43:38;14.30;99.90
35970;DHT22;22448;51.298;6.430;2023-07-30T01:46:05;14.30;99.90
35970;DHT22;22448;51.298;6.430;2023-07-30T01:48:33;14.30;99.90
35970;DHT22;22448;51.298;6.430;2023-07-30T01:51:00;14.30;99.90
35970;DHT22;22448;51.298;6.430;2023-07-30T01:53:27;14.40;99.90
35970;DHT22;22448;51.298;6.430;2023-07-30T01:55:54;14.30;99.90
35970;DHT22;22448;51.298;6.430;2023-07-30T01:58:21;14.20;99.90
35970;DHT22;22448;51.298;6.430;2023-07-30T02:00:48;14.20;99.90
35970;DHT22;22448;51.298;6.430;2023-07-30T02:03:15;14.20;99.90
35970;DHT22;22448;51.298;6.430;2023-07-30T02:05:42;14.20;99.90
35970;DHT22;22448;51.298;6.430;2023-07-30T02:08:09;14.20;99.90
35970;DHT22;22448;51.298;6.430;2023-07-30T02:10:36;14.10;99.90
35970;DHT22;22448;51.298;6.430;2023-07-30T02:13:03;14.10;99.90
35970;DHT22;22448;51.298;6.430;2023-07-30T02:15:31;14.00;99.90
35970;DHT22;22448;51.298;6.430;2023-07-30T02:17:58;14.00;99.90
35970;DHT22;22448;51.298;6.430;2023-07-30T02:20:25;14.00;99.90
35970;DHT22;22448;51.298;6.430;2023-07-30T02:22:52;13.90;99.90
35970;DHT22;22448;51.298;6.430;2023-07-30T02:25:19;13.90;99.90
35970;DHT22;22448;51.298;6.430;2023-07-30T02:27:47;13.90;99.90
35970;DHT22;22448;51.298;6.430;2023-07-30T02:30:14;13.90;99.90
35970;DHT22;22448;51.298;6.430;2023-07-30T02:32:41;13.90;99.90
35970;DHT22;22448;51.298;6.430;2023-07-30T02:35:08;13.80;99.90
35970;DHT22;22448;51.298;6.430;2023-07-30T02:37:35;13.80;99.90
35970;DHT22;22448;51.298;6.430;2023-07-30T02:40:02;13.80;99.90
35970;DHT22;22448;51.298;6.430;2023-07-30T02:42:31;13.80;99.90
35970;DHT22;22448;51.298;6.430;2023-07-30T02:44:58;13.80;99.90
35970;DHT22;22448;51.298;6.430;2023-07-30T02:47:25;13.80;99.90
35970;DHT22;22448;51.298;6.430;2023-07-30T02:49:52;13.70;99.90
35970;DHT22;22448;51.298;6.430;2023-07-30T02:52:19;13.70;99.90
35970;DHT22;22448;51.298;6.430;2023-07-30T02:54:47;13.70;99.90
35970;DHT22;22448;51.298;6.430;2023-07-30T02:57:14;13.70;99.90
35970;DHT22;22448;51.298;6.430;2023-07-30T02:59:41;13.60;99.90
35970;DHT22;22448;51.298;6.430;2023-07-30T03:02:08;13.70;99.90
35970;DHT22;22448;51.298;6.430;2023-07-30T03:04:36;13.70;99.90
35970;DHT22;22448;51.298;6.430;2023-07-30T03:07:03;13.70;99.90
35970;DHT22;22448;51.298;6.430;2023-07-30T03:09:30;13.80;99.90
35970;DHT22;22448;51.298;6.430;2023-07-30T03:11:57;13.80;99.90
35970;DHT22;22448;51.298;6.430;2023-07-30T03:14:24;13.80;99.90
35970;DHT22;22448;51.298;6.430;2023-07-30T03:16:51;13.80;99.90
35970;DHT22;22448;51.298;6.430;2023-07-30T03:19:18;13.80;99.90
35970;DHT22;22448;51.298;6.430;2023-07-30T03:21:46;13.70;99.90
35970;DHT22;22448;51.298;6.430;2023-07-30T03:24:13;13.70;99.90
35970;DHT22;22448;51.298;6.430;2023-07-30T03:26:40;13.70;99.90
35970;DHT22;22448;51.298;6.430;2023-07-30T03:29:07;13.70;99.90
35970;DHT22;22448;51.298;6.430;2023-07-30T03:31:34;13.60;99.90
35970;DHT22;22448;51.298;6.430;2023-07-30T03:34:01;13.60;99.90
35970;DHT22;22448;51.298;6.430;2023-07-30T03:36:28;13.60;99.90
35970;DHT22;22448;51.298;6.430;2023-07-30T03:38:55;13.60;99.90
35970;DHT22;22448;51.298;6.430;2023-07-30T03:41:22;13.60;99.90
35970;DHT22;22448;51.298;6.430;2023-07-30T03:43:49;13.70;99.90
35970;DHT22;22448;51.298;6.430;2023-07-30T03:46:17;13.70;99.90
35970;DHT22;22448;51.298;6.430;2023-07-30T03:48:44;13.70;99.90
35970;DHT22;22448;51.298;6.430;2023-07-30T03:51:12;13.70;99.90
35970;DHT22;22448;51.298;6.430;2023-07-30T03:53:39;13.70;99.90
35970;DHT22;22448;51.298;6.430;2023-07-30T03:56:06;13.80;99.90
35970;DHT22;22448;51.298;6.430;2023-07-30T03:58:34;13.80;99.90
35970;DHT22;22448;51.298;6.430;2023-07-30T04:01:02;13.80;99.90
35970;DHT22;22448;51.298;6.430;2023-07-30T04:03:29;13.90;99.90
35970;DHT22;22448;51.298;6.430;2023-07-30T04:05:57;13.90;99.90
35970;DHT22;22448;51.298;6.430;2023-07-30T04:08:25;14.00;99.90
35970;DHT22;22448;51.298;6.430;2023-07-30T04:10:52;14.10;99.90
35970;DHT22;22448;51.298;6.430;2023-07-30T04:13:19;14.20;99.90
35970;DHT22;22448;51.298;6.430;2023-07-30T04:15:47;14.30;99.90
35970;DHT22;22448;51.298;6.430;2023-07-30T04:18:15;14.40;99.90
35970;DHT22;22448;51.298;6.430;2023-07-30T04:20:42;14.40;99.90
35970;DHT22;22448;51.298;6.430;2023-07-30T04:23:09;14.50;99.90
35970;DHT22;22448;51.298;6.430;2023-07-30T04:25:36;14.60;99.90
35970;DHT22;22448;51.298;6.430;2023-07-30T04:28:03;14.70;99.90
35970;DHT22;22448;51.298;6.430;2023-07-30T04:30:31;14.70;99.90
35970;DHT22;22448;51.298;6.430;2023-07-30T04:32:58;14.80;99.90
35970;DHT22;22448;51.298;6.430;2023-07-30T04:35:27;14.90;99.90
35970;DHT22;22448;51.298;6.430;2023-07-30T04:37:54;14.90;99.90
35970;DHT22;22448;51.298;6.430;2023-07-30T04:40:21;15.00;99.90
35970;DHT22;22448;51.298;6.430;2023-07-30T04:42:48;15.10;99.90
35970;DHT22;22448;51.298;6.430;2023-07-30T04:45:15;15.20;99.90
35970;DHT22;22448;51.298;6.430;2023-07-30T04:47:46;15.20;99.90
35970;DHT22;22448;51.298;6.430;2023-07-30T04:50:13;15.30;99.90
35970;DHT22;22448;51.298;6.430;2023-07-30T04:52:41;15.40;99.90
35970;DHT22;22448;51.298;6.430;2023-07-30T04:55:08;15.40;99.90
35970;DHT22;22448;51.298;6.430;2023-07-30T04:57:35;15.50;99.90
35970;DHT22;22448;51.298;6.430;2023-07-30T05:00:03;15.50;99.90
35970;DHT22;22448;51.298;6.430;2023-07-30T05:02:31;15.60;99.90
35970;DHT22;22448;51.298;6.430;2023-07-30T05:04:58;15.60;99.90
35970;DHT22;22448;51.298;6.430;2023-07-30T05:07:25;15.60;99.90
35970;DHT22;22448;51.298;6.430;2023-07-30T05:09:52;15.60;99.90
35970;DHT22;22448;51.298;6.430;2023-07-30T05:12:19;15.60;99.90
35970;DHT22;22448;51.298;6.430;2023-07-30T05:14:46;15.70;99.90
35970;DHT22;22448;51.298;6.430;2023-07-30T05:17:13;15.70;99.90
35970;DHT22;22448;51.298;6.430;2023-07-30T05:19:40;15.70;99.90
35970;DHT22;22448;51.298;6.430;2023-07-30T05:22:07;15.70;99.90
35970;DHT22;22448;51.298;6.430;2023-07-30T05:24:34;15.70;99.90
35970;DHT22;22448;51.298;6.430;2023-07-30T05:27:04;15.70;99.90
35970;DHT22;22448;51.298;6.430;2023-07-30T05:29:32;15.70;99.90
35970;DHT22;22448;51.298;6.430;2023-07-30T05:31:59;15.70;99.90
35970;DHT22;22448;51.298;6.430;2023-07-30T05:34:26;15.80;99.90
35970;DHT22;22448;51.298;6.430;2023-07-30T05:36:53;15.80;99.90
35970;DHT22;22448;51.298;6.430;2023-07-30T05:39:20;15.80;99.90
35970;DHT22;22448;51.298;6.430;2023-07-30T05:41:47;15.90;99.90
35970;DHT22;22448;51.298;6.430;2023-07-30T05:44:14;16.00;99.90
35970;DHT22;22448;51.298;6.430;2023-07-30T05:46:41;16.00;99.90
35970;DHT22;22448;51.298;6.430;2023-07-30T05:49:08;16.00;99.90
35970;DHT22;22448;51.298;6.430;2023-07-30T05:51:35;16.00;99.90
35970;DHT22;22448;51.298;6.430;2023-07-30T05:54:03;16.00;99.90
35970;DHT22;22448;51.298;6.430;2023-07-30T05:56:30;16.00;99.90
35970;DHT22;22448;51.298;6.430;2023-07-30T05:58:57;16.00;99.90
35970;DHT22;22448;51.298;6.430;2023-07-30T06:01:24;16.00;99.90
35970;DHT22;22448;51.298;6.430;2023-07-30T06:03:51;16.10;99.90
35970;DHT22;22448;51.298;6.430;2023-07-30T06:06:18;16.00;99.90
35970;DHT22;22448;51.298;6.430;2023-07-30T06:08:54;16.10;99.90
35970;DHT22;22448;51.298;6.430;2023-07-30T06:11:21;16.10;99.90
35970;DHT22;22448;51.298;6.430;2023-07-30T06:13:48;16.20;99.90
35970;DHT22;22448;51.298;6.430;2023-07-30T06:16:18;16.20;99.90
35970;DHT22;22448;51.298;6.430;2023-07-30T06:18:47;16.20;99.90
35970;DHT22;22448;51.298;6.430;2023-07-30T06:21:14;16.40;99.90
35970;DHT22;22448;51.298;6.430;2023-07-30T06:23:41;16.40;99.90
35970;DHT22;22448;51.298;6.430;2023-07-30T06:26:08;16.50;99.90
35970;DHT22;22448;51.298;6.430;2023-07-30T06:28:35;16.60;99.90
35970;DHT22;22448;51.298;6.430;2023-07-30T06:31:03;16.60;99.90
35970;DHT22;22448;51.298;6.430;2023-07-30T06:33:30;16.70;99.90
35970;DHT22;22448;51.298;6.430;2023-07-30T06:35:59;16.70;99.90
35970;DHT22;22448;51.298;6.430;2023-07-30T06:38:26;16.70;99.90
35970;DHT22;22448;51.298;6.430;2023-07-30T06:40:53;16.70;99.90
35970;DHT22;22448;51.298;6.430;2023-07-30T06:43:20;16.80;99.90
35970;DHT22;22448;51.298;6.430;2023-07-30T06:45:48;16.90;99.90
35970;DHT22;22448;51.298;6.430;2023-07-30T06:48:15;17.00;99.90
35970;DHT22;22448;51.298;6.430;2023-07-30T06:50:44;17.30;99.90
35970;DHT22;22448;51.298;6.430;2023-07-30T06:53:11;17.50;99.90
35970;DHT22;22448;51.298;6.430;2023-07-30T06:55:38;17.70;99.90
35970;DHT22;22448;51.298;6.430;2023-07-30T06:58:05;17.90;99.90
35970;DHT22;22448;51.298;6.430;2023-07-30T07:00:33;18.10;99.90
35970;DHT22;22448;51.298;6.430;2023-07-30T07:03:00;18.40;99.90
35970;DHT22;22448;51.298;6.430;2023-07-30T07:05:27;18.60;99.90
35970;DHT22;22448;51.298;6.430;2023-07-30T07:07:54;18.60;99.90
35970;DHT22;22448;51.298;6.430;2023-07-30T07:10:21;18.80;99.90
35970;DHT22;22448;51.298;6.430;2023-07-30T07:12:48;18.60;99.90
35970;DHT22;22448;51.298;6.430;2023-07-30T07:15:16;18.70;99.90
35970;DHT22;22448;51.298;6.430;2023-07-30T07:17:43;18.60;99.90
35970;DHT22;22448;51.298;6.430;2023-07-30T07:20:11;18.50;99.90
35970;DHT22;22448;51.298;6.430;2023-07-30T07:22:38;18.60;99.90
35970;DHT22;22448;51.298;6.430;2023-07-30T07:25:05;18.60;99.90
35970;DHT22;22448;51.298;6.430;2023-07-30T07:27:32;18.60;99.90
35970;DHT22;22448;51.298;6.430;2023-07-30T07:29:59;18.50;99.90
35970;DHT22;22448;51.298;6.430;2023-07-30T07:32:27;18.40;99.90
35970;DHT22;22448;51.298;6.430;2023-07-30T07:34:54;18.40;99.90
35970;DHT22;22448;51.298;6.430;2023-07-30T07:37:21;18.20;99.90
35970;DHT22;22448;51.298;6.430;2023-07-30T07:39:48;18.20;99.90
35970;DHT22;22448;51.298;6.430;2023-07-30T07:42:15;18.10;99.90
35970;DHT22;22448;51.298;6.430;2023-07-30T07:44:42;18.10;99.90
35970;DHT22;22448;51.298;6.430;2023-07-30T07:47:12;18.20;99.90
35970;DHT22;22448;51.298;6.430;2023-07-30T07:49:39;18.20;99.90
35970;DHT22;22448;51.298;6.430;2023-07-30T07:52:07;18.20;99.90
35970;DHT22;22448;51.298;6.430;2023-07-30T07:54:34;18.30;99.90
35970;DHT22;22448;51.298;6.430;2023-07-30T07:57:01;18.30;99.90
35970;DHT22;22448;51.298;6.430;2023-07-30T07:59:28;18.20;99.90
35970;DHT22;22448;51.298;6.430;2023-07-30T08:01:56;18.10;99.90
35970;DHT22;22448;51.298;6.430;2023-07-30T08:04:23;18.10;99.90
35970;DHT22;22448;51.298;6.430;2023-07-30T08:06:53;18.10;99.90
35970;DHT22;22448;51.298;6.430;2023-07-30T08:09:20;18.00;99.90
35970;DHT22;22448;51.298;6.430;2023-07-30T08:11:47;18.10;99.90
35970;DHT22;22448;51.298;6.430;2023-07-30T08:14:14;18.10;99.90
35970;DHT22;22448;51.298;6.430;2023-07-30T08:16:41;18.10;99.90
35970;DHT22;22448;51.298;6.430;2023-07-30T08:19:08;18.20;99.90
35970;DHT22;22448;51.298;6.430;2023-07-30T08:21:35;18.20;99.90
35970;DHT22;22448;51.298;6.430;2023-07-30T08:24:03;18.30;99.90
35970;DHT22;22448;51.298;6.430;2023-07-30T08:26:30;18.30;99.90
35970;DHT22;22448;51.298;6.430;2023-07-30T08:28:58;18.40;99.90
35970;DHT22;22448;51.298;6.430;2023-07-30T08:31:25;18.40;99.90
35970;DHT22;22448;51.298;6.430;2023-07-30T08:33:52;18.40;99.90
35970;DHT22;22448;51.298;6.430;2023-07-30T08:36:19;18.40;99.90
35970;DHT22;22448;51.298;6.430;2023-07-30T08:38:49;18.40;99.90
35970;DHT22;22448;51.298;6.430;2023-07-30T08:41:16;18.50;99.90
35970;DHT22;22448;51.298;6.430;2023-07-30T08:43:44;18.60;99.90
35970;DHT22;22448;51.298;6.430;2023-07-30T08:46:16;18.70;99.90
35970;DHT22;22448;51.298;6.430;2023-07-30T08:48:43;18.90;99.90
35970;DHT22;22448;51.298;6.430;2023-07-30T08:51:13;19.20;99.90
35970;DHT22;22448;51.298;6.430;2023-07-30T08:53:42;19.20;99.90
35970;DHT22;22448;51.298;6.430;2023-07-30T08:56:09;19.30;99.90
35970;DHT22;22448;51.298;6.430;2023-07-30T08:58:37;19.40;99.90
35970;DHT22;22448;51.298;6.430;2023-07-30T09:01:08;19.40;99.90
35970;DHT22;22448;51.298;6.430;2023-07-30T09:03:38;19.70;99.90
35970;DHT22;22448;51.298;6.430;2023-07-30T09:06:06;19.90;99.90
35970;DHT22;22448;51.298;6.430;2023-07-30T09:08:34;20.40;99.90
35970;DHT22;22448;51.298;6.430;2023-07-30T09:11:11;20.80;99.90
35970;DHT22;22448;51.298;6.430;2023-07-30T09:13:40;21.10;99.90
35970;DHT22;22448;51.298;6.430;2023-07-30T09:16:11;21.60;99.90
35970;DHT22;22448;51.298;6.430;2023-07-30T09:18:43;22.00;99.90
35970;DHT22;22448;51.298;6.430;2023-07-30T09:21:11;22.20;99.90
35970;DHT22;22448;51.298;6.430;2023-07-30T09:23:43;22.40;99.90
35970;DHT22;22448;51.298;6.430;2023-07-30T09:26:11;22.40;99.90
35970;DHT22;22448;51.298;6.430;2023-07-30T09:28:39;22.70;99.90
35970;DHT22;22448;51.298;6.430;2023-07-30T09:31:08;22.90;99.90
35970;DHT22;22448;51.298;6.430;2023-07-30T09:33:55;22.90;99.90
35970;DHT22;22448;51.298;6.430;2023-07-30T09:36:22;22.90;99.90
35970;DHT22;22448;51.298;6.430;2023-07-30T09:38:49;23.00;99.90
35970;DHT22;22448;51.298;6.430;2023-07-30T09:41:17;23.00;99.90
35970;DHT22;22448;51.298;6.430;2023-07-30T09:43:44;23.00;99.90
35970;DHT22;22448;51.298;6.430;2023-07-30T09:46:11;22.80;99.90
35970;DHT22;22448;51.298;6.430;2023-07-30T09:48:39;22.70;99.90
35970;DHT22;22448;51.298;6.430;2023-07-30T09:51:06;22.60;99.90
35970;DHT22;22448;51.298;6.430;2023-07-30T09:53:33;22.60;99.90
35970;DHT22;22448;51.298;6.430;2023-07-30T09:56:03;22.60;99.90
35970;DHT22;22448;51.298;6.430;2023-07-30T09:58:31;22.50;99.90
35970;DHT22;22448;51.298;6.430;2023-07-30T10:00:59;22.20;99.90
35970;DHT22;22448;51.298;6.430;2023-07-30T10:03:27;21.90;99.90
35970;DHT22;22448;51.298;6.430;2023-07-30T10:06:00;21.50;99.90
35970;DHT22;22448;51.298;6.430;2023-07-30T10:08:31;21.10;99.90
35970;DHT22;22448;51.298;6.430;2023-07-30T10:11:03;21.00;99.90
35970;DHT22;22448;51.298;6.430;2023-07-30T10:13:31;21.10;99.90
35970;DHT22;22448;51.298;6.430;2023-07-30T10:15:58;21.40;99.90
35970;DHT22;22448;51.298;6.430;2023-07-30T10:18:33;21.90;99.90
35970;DHT22;22448;51.298;6.430;2023-07-30T10:21:10;22.20;99.90
35970;DHT22;22448;51.298;6.430;2023-07-30T10:23:57;22.50;99.90
35970;DHT22;22448;51.298;6.430;2023-07-30T10:26:34;22.80;99.90
35970;DHT22;22448;51.298;6.430;2023-07-30T10:29:19;22.80;99.90
35970;DHT22;22448;51.298;6.430;2023-07-30T10:31:55;22.60;99.90
35970;DHT22;22448;51.298;6.430;2023-07-30T10:34:27;22.30;99.90
35970;DHT22;22448;51.298;6.430;2023-07-30T10:36:59;22.00;99.90
35970;DHT22;22448;51.298;6.430;2023-07-30T10:39:27;21.80;99.90
35970;DHT22;22448;51.298;6.430;2023-07-30T10:41:57;21.60;99.90
35970;DHT22;22448;51.298;6.430;2023-07-30T10:44:31;21.30;99.90
35970;DHT22;22448;51.298;6.430;2023-07-30T10:47:00;21.50;99.90
35970;DHT22;22448;51.298;6.430;2023-07-30T10:49:27;22.00;99.90
35970;DHT22;22448;51.298;6.430;2023-07-30T10:51:56;22.60;99.90
35970;DHT22;22448;51.298;6.430;2023-07-30T10:54:26;23.00;99.90
35970;DHT22;22448;51.298;6.430;2023-07-30T10:56:59;23.40;99.90
35970;DHT22;22448;51.298;6.430;2023-07-30T10:59:26;24.00;99.90
35970;DHT22;22448;51.298;6.430;2023-07-30T11:01:59;24.10;99.90
35970;DHT22;22448;51.298;6.430;2023-07-30T11:04:26;23.90;99.90
35970;DHT22;22448;51.298;6.430;2023-07-30T11:06:53;23.50;99.90
35970;DHT22;22448;51.298;6.430;2023-07-30T11:09:25;23.30;99.90
35970;DHT22;22448;51.298;6.430;2023-07-30T11:11:54;23.50;99.90
35970;DHT22;22448;51.298;6.430;2023-07-30T11:14:24;23.50;99.90
35970;DHT22;22448;51.298;6.430;2023-07-30T11:16:59;23.30;99.90
35970;DHT22;22448;51.298;6.430;2023-07-30T11:19:27;23.10;99.90
35970;DHT22;22448;51.298;6.430;2023-07-30T11:21:56;23.10;99.90
35970;DHT22;22448;51.298;6.430;2023-07-30T11:24:37;23.10;99.90
35970;DHT22;22448;51.298;6.430;2023-07-30T11:27:04;23.30;99.90
35970;DHT22;22448;51.298;6.430;2023-07-30T11:29:31;23.40;99.90
35970;DHT22;22448;51.298;6.430;2023-07-30T11:31:59;23.60;99.90
35970;DHT22;22448;51.298;6.430;2023-07-30T11:34:27;23.80;99.90
35970;DHT22;22448;51.298;6.430;2023-07-30T11:36:55;23.90;99.90
35970;DHT22;22448;51.298;6.430;2023-07-30T11:39:23;24.30;99.90
35970;DHT22;22448;51.298;6.430;2023-07-30T11:41:51;24.50;99.90
35970;DHT22;22448;51.298;6.430;2023-07-30T11:44:35;24.50;99.90
35970;DHT22;22448;51.298;6.430;2023-07-30T11:47:05;24.50;99.90
35970;DHT22;22448;51.298;6.430;2023-07-30T11:49:32;24.70;99.90
35970;DHT22;22448;51.298;6.430;2023-07-30T11:52:07;24.40;99.90
35970;DHT22;22448;51.298;6.430;2023-07-30T11:54:35;24.20;99.90
35970;DHT22;22448;51.298;6.430;2023-07-30T11:57:03;24.10;99.90
35970;DHT22;22448;51.298;6.430;2023-07-30T11:59:33;23.70;99.90
35970;DHT22;22448;51.298;6.430;2023-07-30T12:02:00;23.30;99.90
35970;DHT22;22448;51.298;6.430;2023-07-30T12:04:31;23.00;99.90
35970;DHT22;22448;51.298;6.430;2023-07-30T12:06:58;22.90;99.90
35970;DHT22;22448;51.298;6.430;2023-07-30T12:09:25;22.70;99.90
35970;DHT22;22448;51.298;6.430;2023-07-30T12:11:58;22.60;99.90
35970;DHT22;22448;51.298;6.430;2023-07-30T12:14:42;22.60;99.90
35970;DHT22;22448;51.298;6.430;2023-07-30T12:17:09;22.70;99.90
35970;DHT22;22448;51.298;6.430;2023-07-30T12:19:36;22.60;99.90
35970;DHT22;22448;51.298;6.430;2023-07-30T12:22:03;22.80;99.90
35970;DHT22;22448;51.298;6.430;2023-07-30T12:24:31;22.80;99.90
35970;DHT22;22448;51.298;6.430;2023-07-30T12:26:58;22.60;99.90
35970;DHT22;22448;51.298;6.430;2023-07-30T12:29:25;22.70;99.90
35970;DHT22;22448;51.298;6.430;2023-07-30T12:31:53;22.90;99.90
35970;DHT22;22448;51.298;6.430;2023-07-30T12:34:20;23.10;99.90
35970;DHT22;22448;51.298;6.430;2023-07-30T12:36:47;23.40;99.90
35970;DHT22;22448;51.298;6.430;2023-07-30T12:39:14;23.50;99.90
35970;DHT22;22448;51.298;6.430;2023-07-30T12:41:41;23.50;99.90
35970;DHT22;22448;51.298;6.430;2023-07-30T12:44:09;23.60;99.90
35970;DHT22;22448;51.298;6.430;2023-07-30T12:46:36;23.40;99.90
35970;DHT22;22448;51.298;6.430;2023-07-30T12:49:03;23.30;99.90
35970;DHT22;22448;51.298;6.430;2023-07-30T12:51:32;23.30;99.90
35970;DHT22;22448;51.298;6.430;2023-07-30T12:54:00;23.40;99.90
35970;DHT22;22448;51.298;6.430;2023-07-30T12:56:27;23.50;99.90
35970;DHT22;22448;51.298;6.430;2023-07-30T12:58:55;23.60;99.90
35970;DHT22;22448;51.298;6.430;2023-07-30T13:01:22;23.80;99.90
35970;DHT22;22448;51.298;6.430;2023-07-30T13:03:50;23.80;99.90
35970;DHT22;22448;51.298;6.430;2023-07-30T13:06:20;24.00;99.90
35970;DHT22;22448;51.298;6.430;2023-07-30T13:08:47;24.20;99.90
35970;DHT22;22448;51.298;6.430;2023-07-30T13:11:14;24.20;99.90
35970;DHT22;22448;51.298;6.430;2023-07-30T13:13:41;24.20;99.90
35970;DHT22;22448;51.298;6.430;2023-07-30T13:16:08;24.20;99.90
35970;DHT22;22448;51.298;6.430;2023-07-30T13:18:35;24.30;99.90
35970;DHT22;22448;51.298;6.430;2023-07-30T13:21:03;24.10;99.90
35970;DHT22;22448;51.298;6.430;2023-07-30T13:23:30;23.80;99.90
35970;DHT22;22448;51.298;6.430;2023-07-30T13:25:59;23.50;99.90
35970;DHT22;22448;51.298;6.430;2023-07-30T13:28:26;23.30;99.90
35970;DHT22;22448;51.298;6.430;2023-07-30T13:30:53;23.20;99.90
35970;DHT22;22448;51.298;6.430;2023-07-30T13:33:20;23.00;99.90
35970;DHT22;22448;51.298;6.430;2023-07-30T13:35:47;22.90;99.90
35970;DHT22;22448;51.298;6.430;2023-07-30T13:38:14;22.70;99.90
35970;DHT22;22448;51.298;6.430;2023-07-30T13:40:41;22.60;99.90
35970;DHT22;22448;51.298;6.430;2023-07-30T13:43:08;22.40;99.90
35970;DHT22;22448;51.298;6.430;2023-07-30T13:45:35;22.30;99.90
35970;DHT22;22448;51.298;6.430;2023-07-30T13:48:02;22.20;99.90
35970;DHT22;22448;51.298;6.430;2023-07-30T13:50:30;22.20;99.90
35970;DHT22;22448;51.298;6.430;2023-07-30T13:52:57;22.30;99.90
35970;DHT22;22448;51.298;6.430;2023-07-30T13:55:24;22.60;99.90
35970;DHT22;22448;51.298;6.430;2023-07-30T13:57:51;22.80;99.90
35970;DHT22;22448;51.298;6.430;2023-07-30T14:00:18;23.10;99.90
35970;DHT22;22448;51.298;6.430;2023-07-30T14:02:45;23.50;99.90
35970;DHT22;22448;51.298;6.430;2023-07-30T14:05:12;23.70;99.90
35970;DHT22;22448;51.298;6.430;2023-07-30T14:07:40;23.70;99.90
35970;DHT22;22448;51.298;6.430;2023-07-30T14:10:07;23.90;99.90
35970;DHT22;22448;51.298;6.430;2023-07-30T14:12:35;24.00;99.90
35970;DHT22;22448;51.298;6.430;2023-07-30T14:15:02;24.00;99.90
35970;DHT22;22448;51.298;6.430;2023-07-30T14:17:29;24.10;99.90
35970;DHT22;22448;51.298;6.430;2023-07-30T14:19:56;23.90;99.90
35970;DHT22;22448;51.298;6.430;2023-07-30T14:22:23;23.70;99.90
35970;DHT22;22448;51.298;6.430;2023-07-30T14:24:50;23.50;99.90
35970;DHT22;22448;51.298;6.430;2023-07-30T14:27:17;23.40;99.90
35970;DHT22;22448;51.298;6.430;2023-07-30T14:29:44;23.20;99.90
35970;DHT22;22448;51.298;6.430;2023-07-30T14:32:12;23.00;99.90
35970;DHT22;22448;51.298;6.430;2023-07-30T14:34:39;23.00;99.90
35970;DHT22;22448;51.298;6.430;2023-07-30T14:37:06;23.40;99.90
35970;DHT22;22448;51.298;6.430;2023-07-30T14:39:36;23.70;99.90
35970;DHT22;22448;51.298;6.430;2023-07-30T14:42:03;24.00;99.90
35970;DHT22;22448;51.298;6.430;2023-07-30T14:44:30;24.30;99.90
35970;DHT22;22448;51.298;6.430;2023-07-30T14:46:57;24.50;99.90
35970;DHT22;22448;51.298;6.430;2023-07-30T14:49:25;24.70;99.10
35970;DHT22;22448;51.298;6.430;2023-07-30T14:51:52;24.80;99.10
35970;DHT22;22448;51.298;6.430;2023-07-30T14:54:20;24.80;99.30
35970;DHT22;22448;51.298;6.430;2023-07-30T14:56:47;24.50;98.20
35970;DHT22;22448;51.298;6.430;2023-07-30T14:59:14;24.10;98.40
35970;DHT22;22448;51.298;6.430;2023-07-30T15:01:41;23.90;99.50
35970;DHT22;22448;51.298;6.430;2023-07-30T15:04:08;23.60;99.90
35970;DHT22;22448;51.298;6.430;2023-07-30T15:06:35;23.40;99.90
35970;DHT22;22448;51.298;6.430;2023-07-30T15:09:03;23.10;99.90
35970;DHT22;22448;51.298;6.430;2023-07-30T15:11:30;22.90;99.90
35970;DHT22;22448;51.298;6.430;2023-07-30T15:13:57;23.00;99.90
35970;DHT22;22448;51.298;6.430;2023-07-30T15:16:24;23.20;99.90
35970;DHT22;22448;51.298;6.430;2023-07-30T15:18:51;23.80;99.90
35970;DHT22;22448;51.298;6.430;2023-07-30T15:21:18;24.10;99.90
35970;DHT22;22448;51.298;6.430;2023-07-30T15:23:46;24.40;99.80
35970;DHT22;22448;51.298;6.430;2023-07-30T15:26:13;24.30;98.30
35970;DHT22;22448;51.298;6.430;2023-07-30T15:28:40;24.30;99.10
35970;DHT22;22448;51.298;6.430;2023-07-30T15:31:07;24.20;99.40
35970;DHT22;22448;51.298;6.430;2023-07-30T15:33:38;24.20;97.90
35970;DHT22;22448;51.298;6.430;2023-07-30T15:36:06;24.30;99.20
35970;DHT22;22448;51.298;6.430;2023-07-30T15:38:33;24.30;98.90